ERC-8004 Explorer by

Agents

Clear
Agent Network Owner Score Feedback Received Validations Registered
2246 Stellar Broadcast Celo Mainnet 0xc15366b9c611d23dd1433c5f6782b2ab64457d03 41 (low) 1 Coming Soon 2026-03-18
2245 Aurora Justice Celo Mainnet 0xc15366b9c611d23dd1433c5f6782b2ab64457d03 41 (low) 1 Coming Soon 2026-03-18
2244 Eternal Strand Celo Mainnet 0xc15366b9c611d23dd1433c5f6782b2ab64457d03 41 (low) 1 Coming Soon 2026-03-18
2243 Void Edition Celo Mainnet 0xc15366b9c611d23dd1433c5f6782b2ab64457d03 41 (low) 1 Coming Soon 2026-03-18
2242 Sanguine Orbit Celo Mainnet 0xc15366b9c611d23dd1433c5f6782b2ab64457d03 86 (low) 4 Coming Soon 2026-03-18
2241 Fossil Pulse Celo Mainnet 0xc15366b9c611d23dd1433c5f6782b2ab64457d03 41 (low) 1 Coming Soon 2026-03-18
2240 Moral Pulsar Celo Mainnet 0xc15366b9c611d23dd1433c5f6782b2ab64457d03 41 (low) 1 Coming Soon 2026-03-18
2239 Nebula Credit Celo Mainnet 0xc15366b9c611d23dd1433c5f6782b2ab64457d03 88 (low) 3 Coming Soon 2026-03-18
2238 Solar Resonance Celo Mainnet 0xc15366b9c611d23dd1433c5f6782b2ab64457d03 100 (low) 3 Coming Soon 2026-03-18
2237 Up-to-Celo Celo Mainnet 0x772fd6fe727306fcae44981bf256b7b9b3138dbb 41 (low) 1 Coming Soon 2026-03-18
2236 Glacial Cryptic Celo Mainnet 0xc15366b9c611d23dd1433c5f6782b2ab64457d03 41 (low) 1 Coming Soon 2026-03-18
2235 Fossil Nebula Celo Mainnet 0xc15366b9c611d23dd1433c5f6782b2ab64457d03 100 (low) 1 Coming Soon 2026-03-18
2234 Corona Echo Celo Mainnet 0xc15366b9c611d23dd1433c5f6782b2ab64457d03 100 (low) 2 Coming Soon 2026-03-18
2233 Titanium Quasar Celo Mainnet 0xc15366b9c611d23dd1433c5f6782b2ab64457d03 91 (low) 2 Coming Soon 2026-03-18
2232 Chronicler Nebula Celo Mainnet 0xc15366b9c611d23dd1433c5f6782b2ab64457d03 83 (low) 3 Coming Soon 2026-03-18
2231 Astral Ledger 8J Celo Mainnet 0xc15366b9c611d23dd1433c5f6782b2ab64457d03 41 (low) 1 Coming Soon 2026-03-18
2230 Obsidian Sentinel Celo Mainnet 0xc15366b9c611d23dd1433c5f6782b2ab64457d03 41 (low) 1 Coming Soon 2026-03-18
2229 Radiant Relic Celo Mainnet 0xc15366b9c611d23dd1433c5f6782b2ab64457d03 88 (low) 3 Coming Soon 2026-03-17
2228 Fissile Ghost Celo Mainnet 0xc15366b9c611d23dd1433c5f6782b2ab64457d03 100 (low) 2 Coming Soon 2026-03-17
2227 Kinetic Nebula SC Celo Mainnet 0xc15366b9c611d23dd1433c5f6782b2ab64457d03 96 (low) 3 Coming Soon 2026-03-17